sensor_id;sensor_type;location;lat;lon;timestamp;P1;durP1;ratioP1;P2;durP2;ratioP2
17820;SDS011;9035;42.554;23.188;2022-09-27T00:01:10;6.93;;;5.10;;
17820;SDS011;9035;42.554;23.188;2022-09-27T00:03:38;4.80;;;4.40;;
17820;SDS011;9035;42.554;23.188;2022-09-27T00:06:06;7.33;;;5.27;;
17820;SDS011;9035;42.554;23.188;2022-09-27T00:08:35;6.10;;;5.50;;
17820;SDS011;9035;42.554;23.188;2022-09-27T00:11:03;5.67;;;4.83;;
17820;SDS011;9035;42.554;23.188;2022-09-27T00:13:31;6.63;;;5.23;;
17820;SDS011;9035;42.554;23.188;2022-09-27T00:16:01;5.40;;;4.90;;
17820;SDS011;9035;42.554;23.188;2022-09-27T00:18:30;6.07;;;4.70;;
17820;SDS011;9035;42.554;23.188;2022-09-27T00:21:03;5.10;;;4.60;;
17820;SDS011;9035;42.554;23.188;2022-09-27T00:23:30;6.73;;;4.77;;
17820;SDS011;9035;42.554;23.188;2022-09-27T00:25:57;5.90;;;4.83;;
17820;SDS011;9035;42.554;23.188;2022-09-27T00:28:25;5.93;;;4.60;;
17820;SDS011;9035;42.554;23.188;2022-09-27T00:30:52;4.73;;;4.33;;
17820;SDS011;9035;42.554;23.188;2022-09-27T00:33:20;4.73;;;4.33;;
17820;SDS011;9035;42.554;23.188;2022-09-27T00:35:47;5.10;;;4.23;;
17820;SDS011;9035;42.554;23.188;2022-09-27T00:38:14;7.13;;;4.80;;
17820;SDS011;9035;42.554;23.188;2022-09-27T00:40:41;5.10;;;4.60;;
17820;SDS011;9035;42.554;23.188;2022-09-27T00:43:15;5.20;;;4.70;;
17820;SDS011;9035;42.554;23.188;2022-09-27T00:45:45;6.93;;;4.57;;
17820;SDS011;9035;42.554;23.188;2022-09-27T00:48:16;9.87;;;4.83;;
17820;SDS011;9035;42.554;23.188;2022-09-27T00:50:49;5.47;;;4.97;;
17820;SDS011;9035;42.554;23.188;2022-09-27T00:53:21;5.33;;;4.83;;
17820;SDS011;9035;42.554;23.188;2022-09-27T00:55:53;6.33;;;5.47;;
17820;SDS011;9035;42.554;23.188;2022-09-27T00:58:24;5.30;;;4.80;;
17820;SDS011;9035;42.554;23.188;2022-09-27T01:00:55;5.37;;;4.87;;
17820;SDS011;9035;42.554;23.188;2022-09-27T01:03:28;4.90;;;4.40;;
17820;SDS011;9035;42.554;23.188;2022-09-27T01:06:02;5.40;;;4.90;;
17820;SDS011;9035;42.554;23.188;2022-09-27T01:08:32;6.63;;;5.43;;
17820;SDS011;9035;42.554;23.188;2022-09-27T01:11:03;5.57;;;5.00;;
17820;SDS011;9035;42.554;23.188;2022-09-27T01:13:41;6.77;;;5.43;;
17820;SDS011;9035;42.554;23.188;2022-09-27T01:16:15;6.10;;;5.57;;
17820;SDS011;9035;42.554;23.188;2022-09-27T01:18:52;8.27;;;5.90;;
17820;SDS011;9035;42.554;23.188;2022-09-27T01:30:36;7.73;;;6.70;;
17820;SDS011;9035;42.554;23.188;2022-09-27T01:33:10;6.97;;;6.00;;
17820;SDS011;9035;42.554;23.188;2022-09-27T01:35:51;8.63;;;6.23;;
17820;SDS011;9035;42.554;23.188;2022-09-27T01:38:32;10.63;;;5.50;;
17820;SDS011;9035;42.554;23.188;2022-09-27T01:41:08;7.83;;;6.43;;
17820;SDS011;9035;42.554;23.188;2022-09-27T01:43:46;6.40;;;5.87;;
17820;SDS011;9035;42.554;23.188;2022-09-27T01:46:19;7.67;;;6.30;;
17820;SDS011;9035;42.554;23.188;2022-09-27T01:48:48;7.67;;;6.90;;
17820;SDS011;9035;42.554;23.188;2022-09-27T01:51:17;7.73;;;6.93;;
17820;SDS011;9035;42.554;23.188;2022-09-27T01:53:49;8.70;;;6.90;;
17820;SDS011;9035;42.554;23.188;2022-09-27T01:56:20;7.63;;;6.90;;
17820;SDS011;9035;42.554;23.188;2022-09-27T01:58:51;7.70;;;6.90;;
17820;SDS011;9035;42.554;23.188;2022-09-27T02:01:23;8.60;;;6.90;;
17820;SDS011;9035;42.554;23.188;2022-09-27T02:03:52;9.33;;;7.27;;
17820;SDS011;9035;42.554;23.188;2022-09-27T02:06:24;7.87;;;7.00;;
17820;SDS011;9035;42.554;23.188;2022-09-27T02:08:57;10.27;;;7.33;;
17820;SDS011;9035;42.554;23.188;2022-09-27T02:11:28;10.93;;;7.80;;
17820;SDS011;9035;42.554;23.188;2022-09-27T02:13:55;9.47;;;7.70;;
17820;SDS011;9035;42.554;23.188;2022-09-27T02:16:30;8.80;;;7.47;;
17820;SDS011;9035;42.554;23.188;2022-09-27T02:19:07;9.80;;;7.63;;
17820;SDS011;9035;42.554;23.188;2022-09-27T02:21:39;9.40;;;7.80;;
17820;SDS011;9035;42.554;23.188;2022-09-27T02:24:11;9.43;;;8.37;;
17820;SDS011;9035;42.554;23.188;2022-09-27T02:26:45;9.73;;;8.00;;
17820;SDS011;9035;42.554;23.188;2022-09-27T02:29:18;8.03;;;7.20;;
17820;SDS011;9035;42.554;23.188;2022-09-27T02:31:53;10.87;;;8.43;;
17820;SDS011;9035;42.554;23.188;2022-09-27T02:34:20;8.20;;;7.47;;
17820;SDS011;9035;42.554;23.188;2022-09-27T02:36:49;9.60;;;8.80;;
17820;SDS011;9035;42.554;23.188;2022-09-27T02:39:17;10.67;;;9.77;;
17820;SDS011;9035;42.554;23.188;2022-09-27T02:41:44;10.37;;;9.47;;
17820;SDS011;9035;42.554;23.188;2022-09-27T02:44:12;10.63;;;9.63;;
17820;SDS011;9035;42.554;23.188;2022-09-27T02:49:41;10.63;;;9.17;;
17820;SDS011;9035;42.554;23.188;2022-09-27T02:52:17;11.57;;;10.50;;
17820;SDS011;9035;42.554;23.188;2022-09-27T02:54:54;13.33;;;12.03;;
17820;SDS011;9035;42.554;23.188;2022-09-27T02:57:35;14.57;;;11.60;;
17820;SDS011;9035;42.554;23.188;2022-09-27T03:00:14;12.97;;;11.67;;
17820;SDS011;9035;42.554;23.188;2022-09-27T03:02:47;12.17;;;11.03;;
17820;SDS011;9035;42.554;23.188;2022-09-27T03:05:19;12.83;;;11.50;;
17820;SDS011;9035;42.554;23.188;2022-09-27T03:07:49;13.90;;;12.33;;
17820;SDS011;9035;42.554;23.188;2022-09-27T03:10:17;12.97;;;11.37;;
17820;SDS011;9035;42.554;23.188;2022-09-27T03:12:44;13.07;;;11.70;;
17820;SDS011;9035;42.554;23.188;2022-09-27T03:15:11;12.60;;;11.33;;
17820;SDS011;9035;42.554;23.188;2022-09-27T03:17:38;12.03;;;10.83;;
17820;SDS011;9035;42.554;23.188;2022-09-27T03:20:07;11.23;;;10.23;;
17820;SDS011;9035;42.554;23.188;2022-09-27T03:22:34;11.00;;;9.90;;
17820;SDS011;9035;42.554;23.188;2022-09-27T03:25:02;9.97;;;9.00;;
17820;SDS011;9035;42.554;23.188;2022-09-27T03:27:30;10.53;;;9.43;;
17820;SDS011;9035;42.554;23.188;2022-09-27T03:29:57;10.30;;;8.73;;
17820;SDS011;9035;42.554;23.188;2022-09-27T03:32:24;10.73;;;9.23;;
17820;SDS011;9035;42.554;23.188;2022-09-27T03:34:51;8.47;;;7.70;;
17820;SDS011;9035;42.554;23.188;2022-09-27T03:37:20;8.23;;;7.43;;
17820;SDS011;9035;42.554;23.188;2022-09-27T03:39:47;8.20;;;7.50;;
17820;SDS011;9035;42.554;23.188;2022-09-27T03:42:14;11.67;;;7.70;;
17820;SDS011;9035;42.554;23.188;2022-09-27T03:44:41;8.97;;;8.17;;
17820;SDS011;9035;42.554;23.188;2022-09-27T03:47:08;8.60;;;7.77;;
17820;SDS011;9035;42.554;23.188;2022-09-27T03:49:35;8.07;;;7.37;;
17820;SDS011;9035;42.554;23.188;2022-09-27T03:52:02;7.07;;;6.47;;
17820;SDS011;9035;42.554;23.188;2022-09-27T03:54:30;7.50;;;6.80;;
17820;SDS011;9035;42.554;23.188;2022-09-27T03:56:57;6.93;;;6.33;;
17820;SDS011;9035;42.554;23.188;2022-09-27T03:59:24;6.37;;;5.73;;
17820;SDS011;9035;42.554;23.188;2022-09-27T04:01:50;8.67;;;5.53;;
17820;SDS011;9035;42.554;23.188;2022-09-27T04:04:17;7.03;;;6.30;;
17820;SDS011;9035;42.554;23.188;2022-09-27T04:06:44;6.47;;;5.87;;
17820;SDS011;9035;42.554;23.188;2022-09-27T04:09:11;8.77;;;6.17;;
17820;SDS011;9035;42.554;23.188;2022-09-27T04:11:39;10.97;;;7.10;;
17820;SDS011;9035;42.554;23.188;2022-09-27T04:14:06;8.37;;;6.90;;
17820;SDS011;9035;42.554;23.188;2022-09-27T04:16:33;8.97;;;6.80;;
17820;SDS011;9035;42.554;23.188;2022-09-27T04:19:00;12.27;;;6.97;;
17820;SDS011;9035;42.554;23.188;2022-09-27T04:21:26;7.57;;;6.70;;
17820;SDS011;9035;42.554;23.188;2022-09-27T04:23:53;8.40;;;7.60;;
17820;SDS011;9035;42.554;23.188;2022-09-27T04:26:20;8.70;;;7.40;;
17820;SDS011;9035;42.554;23.188;2022-09-27T04:28:48;8.83;;;8.03;;
17820;SDS011;9035;42.554;23.188;2022-09-27T04:31:16;9.83;;;8.90;;
17820;SDS011;9035;42.554;23.188;2022-09-27T04:33:43;12.47;;;9.20;;
17820;SDS011;9035;42.554;23.188;2022-09-27T04:36:10;11.37;;;9.57;;
17820;SDS011;9035;42.554;23.188;2022-09-27T04:38:53;12.17;;;9.73;;
17820;SDS011;9035;42.554;23.188;2022-09-27T04:41:21;11.50;;;10.13;;
17820;SDS011;9035;42.554;23.188;2022-09-27T04:43:50;12.37;;;9.47;;
17820;SDS011;9035;42.554;23.188;2022-09-27T04:46:18;10.60;;;9.60;;
17820;SDS011;9035;42.554;23.188;2022-09-27T04:48:45;11.23;;;9.87;;
17820;SDS011;9035;42.554;23.188;2022-09-27T04:51:12;10.83;;;9.70;;
17820;SDS011;9035;42.554;23.188;2022-09-27T04:53:41;12.77;;;9.93;;
17820;SDS011;9035;42.554;23.188;2022-09-27T04:56:08;10.87;;;9.83;;
17820;SDS011;9035;42.554;23.188;2022-09-27T04:58:35;12.30;;;10.20;;
17820;SDS011;9035;42.554;23.188;2022-09-27T05:01:03;11.53;;;10.43;;
17820;SDS011;9035;42.554;23.188;2022-09-27T05:03:31;10.83;;;9.73;;
17820;SDS011;9035;42.554;23.188;2022-09-27T05:05:58;13.53;;;9.30;;
17820;SDS011;9035;42.554;23.188;2022-09-27T05:08:25;9.47;;;8.53;;
17820;SDS011;9035;42.554;23.188;2022-09-27T05:10:52;10.57;;;9.50;;
17820;SDS011;9035;42.554;23.188;2022-09-27T05:13:19;10.40;;;9.30;;
17820;SDS011;9035;42.554;23.188;2022-09-27T05:15:46;11.47;;;9.43;;
17820;SDS011;9035;42.554;23.188;2022-09-27T05:18:15;10.17;;;8.43;;
17820;SDS011;9035;42.554;23.188;2022-09-27T05:20:43;9.37;;;8.40;;
17820;SDS011;9035;42.554;23.188;2022-09-27T05:23:09;10.90;;;8.40;;
17820;SDS011;9035;42.554;23.188;2022-09-27T05:25:37;9.10;;;8.30;;
17820;SDS011;9035;42.554;23.188;2022-09-27T05:28:04;9.13;;;8.30;;
17820;SDS011;9035;42.554;23.188;2022-09-27T05:30:31;8.73;;;8.00;;
17820;SDS011;9035;42.554;23.188;2022-09-27T05:32:58;11.13;;;8.87;;
17820;SDS011;9035;42.554;23.188;2022-09-27T05:35:26;8.87;;;8.07;;
17820;SDS011;9035;42.554;23.188;2022-09-27T05:37:53;8.80;;;7.90;;
17820;SDS011;9035;42.554;23.188;2022-09-27T05:40:21;12.13;;;9.07;;
17820;SDS011;9035;42.554;23.188;2022-09-27T05:42:50;11.30;;;9.50;;
17820;SDS011;9035;42.554;23.188;2022-09-27T05:45:18;11.47;;;10.33;;
17820;SDS011;9035;42.554;23.188;2022-09-27T05:47:53;10.70;;;9.80;;
17820;SDS011;9035;42.554;23.188;2022-09-27T05:50:20;10.70;;;9.60;;
17820;SDS011;9035;42.554;23.188;2022-09-27T05:52:49;10.40;;;9.43;;
17820;SDS011;9035;42.554;23.188;2022-09-27T05:55:16;9.97;;;8.97;;
17820;SDS011;9035;42.554;23.188;2022-09-27T05:57:52;9.23;;;8.43;;
17820;SDS011;9035;42.554;23.188;2022-09-27T06:00:20;9.17;;;8.37;;
17820;SDS011;9035;42.554;23.188;2022-09-27T06:02:51;9.27;;;8.13;;
17820;SDS011;9035;42.554;23.188;2022-09-27T06:05:19;7.70;;;7.03;;
17820;SDS011;9035;42.554;23.188;2022-09-27T06:07:46;8.33;;;7.27;;
17820;SDS011;9035;42.554;23.188;2022-09-27T06:10:15;7.53;;;6.83;;
17820;SDS011;9035;42.554;23.188;2022-09-27T06:12:42;6.73;;;6.20;;
17820;SDS011;9035;42.554;23.188;2022-09-27T06:15:09;6.93;;;6.33;;
17820;SDS011;9035;42.554;23.188;2022-09-27T06:17:36;6.03;;;5.43;;
17820;SDS011;9035;42.554;23.188;2022-09-27T06:20:03;6.87;;;5.37;;
17820;SDS011;9035;42.554;23.188;2022-09-27T06:22:31;6.80;;;6.17;;
17820;SDS011;9035;42.554;23.188;2022-09-27T06:24:58;6.37;;;5.80;;
17820;SDS011;9035;42.554;23.188;2022-09-27T06:27:26;6.53;;;5.97;;
17820;SDS011;9035;42.554;23.188;2022-09-27T06:29:53;6.87;;;6.17;;
17820;SDS011;9035;42.554;23.188;2022-09-27T06:32:21;6.87;;;6.27;;
17820;SDS011;9035;42.554;23.188;2022-09-27T06:34:48;7.27;;;6.53;;
17820;SDS011;9035;42.554;23.188;2022-09-27T06:37:14;7.40;;;6.70;;
17820;SDS011;9035;42.554;23.188;2022-09-27T06:39:41;7.20;;;6.60;;
17820;SDS011;9035;42.554;23.188;2022-09-27T06:42:08;7.23;;;6.53;;
17820;SDS011;9035;42.554;23.188;2022-09-27T06:44:37;7.43;;;6.80;;
17820;SDS011;9035;42.554;23.188;2022-09-27T06:47:04;8.97;;;8.10;;
17820;SDS011;9035;42.554;23.188;2022-09-27T06:49:30;9.23;;;8.43;;
17820;SDS011;9035;42.554;23.188;2022-09-27T06:51:57;8.17;;;7.47;;
17820;SDS011;9035;42.554;23.188;2022-09-27T06:54:24;9.97;;;7.70;;
17820;SDS011;9035;42.554;23.188;2022-09-27T06:56:51;8.93;;;8.13;;
17820;SDS011;9035;42.554;23.188;2022-09-27T06:59:18;8.43;;;7.73;;
17820;SDS011;9035;42.554;23.188;2022-09-27T07:02:03;8.13;;;7.43;;
17820;SDS011;9035;42.554;23.188;2022-09-27T07:04:30;8.90;;;7.77;;
17820;SDS011;9035;42.554;23.188;2022-09-27T07:06:57;8.57;;;7.77;;
17820;SDS011;9035;42.554;23.188;2022-09-27T07:09:24;8.80;;;7.77;;
17820;SDS011;9035;42.554;23.188;2022-09-27T07:11:51;8.37;;;7.33;;
17820;SDS011;9035;42.554;23.188;2022-09-27T07:14:19;8.27;;;7.47;;
17820;SDS011;9035;42.554;23.188;2022-09-27T07:16:46;7.97;;;7.20;;
17820;SDS011;9035;42.554;23.188;2022-09-27T07:19:14;11.50;;;9.40;;
17820;SDS011;9035;42.554;23.188;2022-09-27T07:21:42;14.97;;;13.17;;
17820;SDS011;9035;42.554;23.188;2022-09-27T07:24:09;8.63;;;7.83;;
17820;SDS011;9035;42.554;23.188;2022-09-27T07:26:36;7.90;;;7.10;;
17820;SDS011;9035;42.554;23.188;2022-09-27T07:29:03;12.43;;;7.60;;
17820;SDS011;9035;42.554;23.188;2022-09-27T07:31:29;8.13;;;7.30;;
17820;SDS011;9035;42.554;23.188;2022-09-27T07:33:56;9.87;;;8.00;;
17820;SDS011;9035;42.554;23.188;2022-09-27T07:36:24;8.77;;;7.87;;
17820;SDS011;9035;42.554;23.188;2022-09-27T07:38:51;8.07;;;7.37;;
17820;SDS011;9035;42.554;23.188;2022-09-27T07:41:18;11.93;;;8.67;;
17820;SDS011;9035;42.554;23.188;2022-09-27T07:43:45;8.87;;;8.07;;
17820;SDS011;9035;42.554;23.188;2022-09-27T07:46:12;8.50;;;7.57;;
17820;SDS011;9035;42.554;23.188;2022-09-27T07:48:38;9.13;;;8.27;;
17820;SDS011;9035;42.554;23.188;2022-09-27T07:51:05;8.97;;;7.63;;
17820;SDS011;9035;42.554;23.188;2022-09-27T07:53:36;8.63;;;7.93;;
17820;SDS011;9035;42.554;23.188;2022-09-27T07:56:04;8.07;;;7.37;;
17820;SDS011;9035;42.554;23.188;2022-09-27T07:58:31;8.07;;;7.27;;
17820;SDS011;9035;42.554;23.188;2022-09-27T08:00:58;7.37;;;6.70;;
17820;SDS011;9035;42.554;23.188;2022-09-27T08:03:26;9.07;;;7.87;;
17820;SDS011;9035;42.554;23.188;2022-09-27T08:05:53;9.10;;;7.40;;
17820;SDS011;9035;42.554;23.188;2022-09-27T08:08:20;8.30;;;7.53;;
17820;SDS011;9035;42.554;23.188;2022-09-27T08:10:48;7.60;;;7.00;;
17820;SDS011;9035;42.554;23.188;2022-09-27T08:13:17;9.37;;;8.43;;
17820;SDS011;9035;42.554;23.188;2022-09-27T08:15:44;10.43;;;9.60;;
17820;SDS011;9035;42.554;23.188;2022-09-27T08:18:12;10.20;;;9.20;;
17820;SDS011;9035;42.554;23.188;2022-09-27T08:20:39;10.87;;;9.73;;
17820;SDS011;9035;42.554;23.188;2022-09-27T08:23:06;10.67;;;9.57;;
17820;SDS011;9035;42.554;23.188;2022-09-27T08:25:33;11.97;;;10.93;;
17820;SDS011;9035;42.554;23.188;2022-09-27T08:28:02;11.40;;;10.27;;
17820;SDS011;9035;42.554;23.188;2022-09-27T08:30:30;12.57;;;10.57;;
17820;SDS011;9035;42.554;23.188;2022-09-27T08:32:57;11.90;;;10.70;;
17820;SDS011;9035;42.554;23.188;2022-09-27T08:35:26;15.13;;;10.97;;
17820;SDS011;9035;42.554;23.188;2022-09-27T08:37:54;12.97;;;11.23;;
17820;SDS011;9035;42.554;23.188;2022-09-27T08:40:23;14.60;;;10.30;;
17820;SDS011;9035;42.554;23.188;2022-09-27T08:42:58;11.43;;;10.47;;
17820;SDS011;9035;42.554;23.188;2022-09-27T08:45:31;14.27;;;12.83;;
17820;SDS011;9035;42.554;23.188;2022-09-27T08:48:03;14.23;;;12.83;;
17820;SDS011;9035;42.554;23.188;2022-09-27T08:50:31;14.23;;;12.83;;
17820;SDS011;9035;42.554;23.188;2022-09-27T08:53:02;14.33;;;12.80;;
17820;SDS011;9035;42.554;23.188;2022-09-27T08:55:34;12.40;;;11.40;;
17820;SDS011;9035;42.554;23.188;2022-09-27T08:58:12;11.67;;;10.57;;
17820;SDS011;9035;42.554;23.188;2022-09-27T09:00:43;13.43;;;12.13;;
17820;SDS011;9035;42.554;23.188;2022-09-27T09:03:15;12.80;;;11.50;;
17820;SDS011;9035;42.554;23.188;2022-09-27T09:05:46;11.33;;;10.43;;
17820;SDS011;9035;42.554;23.188;2022-09-27T09:08:25;11.47;;;10.37;;
17820;SDS011;9035;42.554;23.188;2022-09-27T09:11:00;11.70;;;10.50;;
17820;SDS011;9035;42.554;23.188;2022-09-27T09:16:47;11.17;;;10.00;;
17820;SDS011;9035;42.554;23.188;2022-09-27T09:19:32;9.97;;;8.97;;
17820;SDS011;9035;42.554;23.188;2022-09-27T09:22:10;10.43;;;9.43;;
17820;SDS011;9035;42.554;23.188;2022-09-27T09:24:53;10.53;;;9.50;;
17820;SDS011;9035;42.554;23.188;2022-09-27T09:27:32;10.50;;;9.40;;
17820;SDS011;9035;42.554;23.188;2022-09-27T09:30:15;10.00;;;9.10;;
17820;SDS011;9035;42.554;23.188;2022-09-27T09:32:49;8.53;;;7.93;;
17820;SDS011;9035;42.554;23.188;2022-09-27T09:35:31;9.10;;;8.30;;
17820;SDS011;9035;42.554;23.188;2022-09-27T09:38:03;7.80;;;7.07;;
17820;SDS011;9035;42.554;23.188;2022-09-27T09:40:38;7.03;;;6.30;;
17820;SDS011;9035;42.554;23.188;2022-09-27T09:43:12;8.10;;;7.30;;
17820;SDS011;9035;42.554;23.188;2022-09-27T09:45:43;8.67;;;7.53;;
17820;SDS011;9035;42.554;23.188;2022-09-27T09:48:16;8.97;;;7.60;;
17820;SDS011;9035;42.554;23.188;2022-09-27T09:50:50;15.23;;;7.47;;
17820;SDS011;9035;42.554;23.188;2022-09-27T09:53:20;8.90;;;6.50;;
17820;SDS011;9035;42.554;23.188;2022-09-27T09:55:54;8.30;;;7.60;;
17820;SDS011;9035;42.554;23.188;2022-09-27T09:58:27;7.97;;;6.37;;
17820;SDS011;9035;42.554;23.188;2022-09-27T10:00:58;7.13;;;6.50;;
17820;SDS011;9035;42.554;23.188;2022-09-27T10:03:36;7.37;;;6.67;;
17820;SDS011;9035;42.554;23.188;2022-09-27T10:06:04;7.00;;;6.30;;
17820;SDS011;9035;42.554;23.188;2022-09-27T10:08:31;7.00;;;6.30;;
17820;SDS011;9035;42.554;23.188;2022-09-27T10:10:58;9.23;;;8.30;;
17820;SDS011;9035;42.554;23.188;2022-09-27T10:13:26;10.13;;;7.50;;
17820;SDS011;9035;42.554;23.188;2022-09-27T10:15:54;6.97;;;6.30;;
17820;SDS011;9035;42.554;23.188;2022-09-27T10:18:28;9.67;;;6.37;;
17820;SDS011;9035;42.554;23.188;2022-09-27T10:20:57;6.83;;;5.53;;
17820;SDS011;9035;42.554;23.188;2022-09-27T10:23:27;6.83;;;6.00;;
17820;SDS011;9035;42.554;23.188;2022-09-27T10:25:54;9.13;;;6.40;;
17820;SDS011;9035;42.554;23.188;2022-09-27T10:28:31;8.43;;;6.27;;
17820;SDS011;9035;42.554;23.188;2022-09-27T10:31:02;6.83;;;6.03;;
17820;SDS011;9035;42.554;23.188;2022-09-27T10:33:30;6.13;;;5.53;;
17820;SDS011;9035;42.554;23.188;2022-09-27T10:35:59;6.70;;;6.00;;
17820;SDS011;9035;42.554;23.188;2022-09-27T10:38:27;6.03;;;5.53;;
17820;SDS011;9035;42.554;23.188;2022-09-27T10:40:56;6.43;;;5.80;;
17820;SDS011;9035;42.554;23.188;2022-09-27T10:43:41;7.00;;;5.40;;
17820;SDS011;9035;42.554;23.188;2022-09-27T10:46:12;7.50;;;5.33;;
17820;SDS011;9035;42.554;23.188;2022-09-27T10:51:42;6.93;;;5.00;;
17820;SDS011;9035;42.554;23.188;2022-09-27T10:54:17;6.87;;;5.60;;
17820;SDS011;9035;42.554;23.188;2022-09-27T10:56:52;9.13;;;5.23;;
17820;SDS011;9035;42.554;23.188;2022-09-27T10:59:21;7.73;;;4.20;;
17820;SDS011;9035;42.554;23.188;2022-09-27T11:01:48;8.47;;;4.23;;
17820;SDS011;9035;42.554;23.188;2022-09-27T11:04:18;4.33;;;3.60;;
17820;SDS011;9035;42.554;23.188;2022-09-27T11:06:49;5.23;;;3.60;;
17820;SDS011;9035;42.554;23.188;2022-09-27T11:09:18;10.30;;;3.73;;
17820;SDS011;9035;42.554;23.188;2022-09-27T11:11:48;4.53;;;3.63;;
17820;SDS011;9035;42.554;23.188;2022-09-27T11:14:16;3.67;;;3.37;;
17820;SDS011;9035;42.554;23.188;2022-09-27T11:16:47;6.13;;;3.20;;
17820;SDS011;9035;42.554;23.188;2022-09-27T11:19:31;3.57;;;2.87;;
17820;SDS011;9035;42.554;23.188;2022-09-27T11:22:10;6.07;;;3.10;;
17820;SDS011;9035;42.554;23.188;2022-09-27T11:24:52;3.23;;;2.60;;
17820;SDS011;9035;42.554;23.188;2022-09-27T11:27:29;3.63;;;2.60;;
17820;SDS011;9035;42.554;23.188;2022-09-27T11:30:04;8.13;;;2.57;;
17820;SDS011;9035;42.554;23.188;2022-09-27T11:32:45;6.63;;;2.73;;
17820;SDS011;9035;42.554;23.188;2022-09-27T11:35:29;9.23;;;2.45;;
17820;SDS011;9035;42.554;23.188;2022-09-27T11:38:11;7.40;;;2.47;;
17820;SDS011;9035;42.554;23.188;2022-09-27T11:40:48;33.13;;;6.45;;
17820;SDS011;9035;42.554;23.188;2022-09-27T11:43:41;9.63;;;2.35;;
17820;SDS011;9035;42.554;23.188;2022-09-27T11:46:22;10.40;;;2.92;;
17820;SDS011;9035;42.554;23.188;2022-09-27T11:48:58;9.98;;;5.70;;
17820;SDS011;9035;42.554;23.188;2022-09-27T11:51:42;4.07;;;2.33;;
17820;SDS011;9035;42.554;23.188;2022-09-27T11:54:27;5.32;;;2.42;;
17820;SDS011;9035;42.554;23.188;2022-09-27T11:57:05;6.22;;;2.83;;
17820;SDS011;9035;42.554;23.188;2022-09-27T11:59:49;5.85;;;2.88;;
17820;SDS011;9035;42.554;23.188;2022-09-27T12:02:49;5.45;;;2.00;;
17820;SDS011;9035;42.554;23.188;2022-09-27T12:05:35;5.75;;;3.72;;
17820;SDS011;9035;42.554;23.188;2022-09-27T12:08:17;6.05;;;2.50;;
17820;SDS011;9035;42.554;23.188;2022-09-27T12:10:57;1.90;;;1.52;;
17820;SDS011;9035;42.554;23.188;2022-09-27T12:13:32;3.47;;;1.80;;
17820;SDS011;9035;42.554;23.188;2022-09-27T12:16:03;1.75;;;1.65;;
17820;SDS011;9035;42.554;23.188;2022-09-27T12:18:31;1.80;;;1.70;;
17820;SDS011;9035;42.554;23.188;2022-09-27T12:21:03;1.73;;;1.63;;
17820;SDS011;9035;42.554;23.188;2022-09-27T12:23:35;4.22;;;1.73;;
17820;SDS011;9035;42.554;23.188;2022-09-27T12:26:08;2.60;;;1.80;;
17820;SDS011;9035;42.554;23.188;2022-09-27T12:28:42;2.75;;;1.70;;
17820;SDS011;9035;42.554;23.188;2022-09-27T12:31:16;2.20;;;1.50;;
17820;SDS011;9035;42.554;23.188;2022-09-27T12:33:49;2.80;;;1.58;;
17820;SDS011;9035;42.554;23.188;2022-09-27T12:36:25;2.55;;;1.50;;
17820;SDS011;9035;42.554;23.188;2022-09-27T12:39:00;3.08;;;1.70;;
17820;SDS011;9035;42.554;23.188;2022-09-27T12:41:35;1.63;;;1.52;;
17820;SDS011;9035;42.554;23.188;2022-09-27T12:44:06;5.40;;;3.55;;
17820;SDS011;9035;42.554;23.188;2022-09-27T12:46:38;3.33;;;2.28;;
17820;SDS011;9035;42.554;23.188;2022-09-27T12:49:14;2.50;;;2.30;;
17820;SDS011;9035;42.554;23.188;2022-09-27T12:51:50;8.02;;;2.20;;
17820;SDS011;9035;42.554;23.188;2022-09-27T12:54:36;2.65;;;1.58;;
17820;SDS011;9035;42.554;23.188;2022-09-27T12:57:20;2.70;;;1.48;;
17820;SDS011;9035;42.554;23.188;2022-09-27T13:00:04;3.03;;;2.00;;
17820;SDS011;9035;42.554;23.188;2022-09-27T13:02:41;1.75;;;1.65;;
17820;SDS011;9035;42.554;23.188;2022-09-27T13:05:31;1.65;;;1.55;;
17820;SDS011;9035;42.554;23.188;2022-09-27T13:08:17;1.58;;;1.48;;
17820;SDS011;9035;42.554;23.188;2022-09-27T13:10:57;2.05;;;1.60;;
17820;SDS011;9035;42.554;23.188;2022-09-27T13:13:34;2.33;;;1.13;;
17820;SDS011;9035;42.554;23.188;2022-09-27T13:16:04;19.48;;;4.35;;
17820;SDS011;9035;42.554;23.188;2022-09-27T13:18:49;1.52;;;1.40;;
17820;SDS011;9035;42.554;23.188;2022-09-27T13:24:29;2.45;;;1.20;;
17820;SDS011;9035;42.554;23.188;2022-09-27T13:27:20;2.42;;;1.27;;
17820;SDS011;9035;42.554;23.188;2022-09-27T13:39:00;1.45;;;0.90;;
17820;SDS011;9035;42.554;23.188;2022-09-27T13:41:33;3.30;;;1.10;;
17820;SDS011;9035;42.554;23.188;2022-09-27T13:44:20;1.88;;;1.77;;
17820;SDS011;9035;42.554;23.188;2022-09-27T13:46:55;1.40;;;0.90;;
17820;SDS011;9035;42.554;23.188;2022-09-27T13:49:29;2.75;;;1.00;;
17820;SDS011;9035;42.554;23.188;2022-09-27T13:52:02;3.13;;;0.80;;
17820;SDS011;9035;42.554;23.188;2022-09-27T13:54:36;2.53;;;1.30;;
17820;SDS011;9035;42.554;23.188;2022-09-27T14:00:15;6.65;;;1.33;;
17820;SDS011;9035;42.554;23.188;2022-09-27T14:02:50;1.10;;;1.00;;
17820;SDS011;9035;42.554;23.188;2022-09-27T14:05:26;1.25;;;1.15;;
17820;SDS011;9035;42.554;23.188;2022-09-27T14:07:57;2.05;;;1.13;;
17820;SDS011;9035;42.554;23.188;2022-09-27T14:10:27;2.30;;;0.90;;
17820;SDS011;9035;42.554;23.188;2022-09-27T14:12:56;3.65;;;1.13;;
17820;SDS011;9035;42.554;23.188;2022-09-27T14:15:26;1.70;;;1.10;;
17820;SDS011;9035;42.554;23.188;2022-09-27T14:17:54;1.15;;;1.05;;
17820;SDS011;9035;42.554;23.188;2022-09-27T14:20:37;0.90;;;0.90;;
17820;SDS011;9035;42.554;23.188;2022-09-27T14:23:11;1.50;;;1.40;;
17820;SDS011;9035;42.554;23.188;2022-09-27T14:25:43;2.10;;;1.27;;
17820;SDS011;9035;42.554;23.188;2022-09-27T14:28:18;1.52;;;0.90;;
17820;SDS011;9035;42.554;23.188;2022-09-27T14:30:47;1.35;;;1.23;;
17820;SDS011;9035;42.554;23.188;2022-09-27T14:33:27;1.42;;;0.90;;
17820;SDS011;9035;42.554;23.188;2022-09-27T14:35:56;1.13;;;0.85;;
17820;SDS011;9035;42.554;23.188;2022-09-27T14:38:42;2.35;;;1.25;;
17820;SDS011;9035;42.554;23.188;2022-09-27T14:41:09;1.40;;;1.27;;
17820;SDS011;9035;42.554;23.188;2022-09-27T14:43:40;2.35;;;1.30;;
17820;SDS011;9035;42.554;23.188;2022-09-27T14:46:22;2.03;;;1.45;;
17820;SDS011;9035;42.554;23.188;2022-09-27T14:48:51;1.63;;;1.30;;
17820;SDS011;9035;42.554;23.188;2022-09-27T14:51:20;2.45;;;1.27;;
17820;SDS011;9035;42.554;23.188;2022-09-27T14:53:54;1.30;;;1.13;;
17820;SDS011;9035;42.554;23.188;2022-09-27T14:56:24;2.15;;;1.20;;
17820;SDS011;9035;42.554;23.188;2022-09-27T14:58:55;1.48;;;1.30;;
17820;SDS011;9035;42.554;23.188;2022-09-27T15:01:26;1.75;;;1.65;;
17820;SDS011;9035;42.554;23.188;2022-09-27T15:03:54;1.58;;;1.30;;
17820;SDS011;9035;42.554;23.188;2022-09-27T15:06:23;1.97;;;1.70;;
17820;SDS011;9035;42.554;23.188;2022-09-27T15:08:50;1.88;;;1.48;;
17820;SDS011;9035;42.554;23.188;2022-09-27T15:11:19;3.37;;;1.40;;
17820;SDS011;9035;42.554;23.188;2022-09-27T15:13:46;2.57;;;1.70;;
17820;SDS011;9035;42.554;23.188;2022-09-27T15:16:19;2.87;;;1.87;;
17820;SDS011;9035;42.554;23.188;2022-09-27T15:18:48;2.40;;;1.67;;
17820;SDS011;9035;42.554;23.188;2022-09-27T15:21:30;2.87;;;1.90;;
17820;SDS011;9035;42.554;23.188;2022-09-27T15:23:57;2.53;;;1.73;;
17820;SDS011;9035;42.554;23.188;2022-09-27T15:26:26;1.20;;;1.10;;
17820;SDS011;9035;42.554;23.188;2022-09-27T15:29:01;3.13;;;0.93;;
17820;SDS011;9035;42.554;23.188;2022-09-27T15:31:29;1.67;;;0.90;;
17820;SDS011;9035;42.554;23.188;2022-09-27T15:33:57;1.77;;;1.10;;
17820;SDS011;9035;42.554;23.188;2022-09-27T15:39:20;1.30;;;1.17;;
17820;SDS011;9035;42.554;23.188;2022-09-27T15:42:00;2.50;;;1.60;;
17820;SDS011;9035;42.554;23.188;2022-09-27T15:44:45;3.40;;;1.17;;